sensor_id;sensor_type;location;lat;lon;timestamp;temperature;humidity
16392;DHT22;8305;-33.882;151.134;2022-12-20T00:02:12;21.70;99.90
16392;DHT22;8305;-33.882;151.134;2022-12-20T00:04:43;21.50;99.90
16392;DHT22;8305;-33.882;151.134;2022-12-20T00:07:13;21.50;99.90
16392;DHT22;8305;-33.882;151.134;2022-12-20T00:09:44;21.40;99.90
16392;DHT22;8305;-33.882;151.134;2022-12-20T00:12:17;21.30;99.90
16392;DHT22;8305;-33.882;151.134;2022-12-20T00:14:48;21.30;99.90
16392;DHT22;8305;-33.882;151.134;2022-12-20T00:17:19;21.20;99.90
16392;DHT22;8305;-33.882;151.134;2022-12-20T00:19:50;21.10;99.90
16392;DHT22;8305;-33.882;151.134;2022-12-20T00:22:21;21.00;99.90
16392;DHT22;8305;-33.882;151.134;2022-12-20T00:24:52;20.90;99.90
16392;DHT22;8305;-33.882;151.134;2022-12-20T00:27:25;21.10;99.90
16392;DHT22;8305;-33.882;151.134;2022-12-20T00:29:56;21.00;99.90
16392;DHT22;8305;-33.882;151.134;2022-12-20T00:32:27;21.00;99.90
16392;DHT22;8305;-33.882;151.134;2022-12-20T00:34:58;20.90;99.90
16392;DHT22;8305;-33.882;151.134;2022-12-20T00:37:29;20.90;99.90
16392;DHT22;8305;-33.882;151.134;2022-12-20T00:40:00;20.80;99.90
16392;DHT22;8305;-33.882;151.134;2022-12-20T00:42:33;20.60;99.90
16392;DHT22;8305;-33.882;151.134;2022-12-20T00:45:04;20.50;99.90
16392;DHT22;8305;-33.882;151.134;2022-12-20T00:47:35;20.50;99.90
16392;DHT22;8305;-33.882;151.134;2022-12-20T00:50:07;20.50;99.90
16392;DHT22;8305;-33.882;151.134;2022-12-20T00:52:37;20.40;99.90
16392;DHT22;8305;-33.882;151.134;2022-12-20T00:55:08;20.30;99.90
16392;DHT22;8305;-33.882;151.134;2022-12-20T00:57:41;20.40;99.90
16392;DHT22;8305;-33.882;151.134;2022-12-20T01:00:12;20.50;99.90
16392;DHT22;8305;-33.882;151.134;2022-12-20T01:02:44;20.60;99.90
16392;DHT22;8305;-33.882;151.134;2022-12-20T01:05:15;20.60;99.90
16392;DHT22;8305;-33.882;151.134;2022-12-20T01:07:45;20.60;99.90
16392;DHT22;8305;-33.882;151.134;2022-12-20T01:10:16;20.50;99.90
16392;DHT22;8305;-33.882;151.134;2022-12-20T01:12:49;20.60;99.90
16392;DHT22;8305;-33.882;151.134;2022-12-20T01:15:20;20.70;99.90
16392;DHT22;8305;-33.882;151.134;2022-12-20T01:17:50;21.10;99.90
16392;DHT22;8305;-33.882;151.134;2022-12-20T01:20:21;21.30;99.90
16392;DHT22;8305;-33.882;151.134;2022-12-20T01:22:52;21.30;99.90
16392;DHT22;8305;-33.882;151.134;2022-12-20T01:25:23;21.30;99.90
16392;DHT22;8305;-33.882;151.134;2022-12-20T01:27:55;21.30;99.90
16392;DHT22;8305;-33.882;151.134;2022-12-20T01:30:26;21.50;99.90
16392;DHT22;8305;-33.882;151.134;2022-12-20T01:32:57;22.00;99.90
16392;DHT22;8305;-33.882;151.134;2022-12-20T01:35:28;22.40;99.90
16392;DHT22;8305;-33.882;151.134;2022-12-20T01:37:58;22.50;99.90
16392;DHT22;8305;-33.882;151.134;2022-12-20T01:40:29;22.40;99.90
16392;DHT22;8305;-33.882;151.134;2022-12-20T01:43:02;21.80;99.90
16392;DHT22;8305;-33.882;151.134;2022-12-20T01:45:33;21.80;99.90
16392;DHT22;8305;-33.882;151.134;2022-12-20T01:48:04;22.00;99.90
16392;DHT22;8305;-33.882;151.134;2022-12-20T01:50:35;22.00;99.90
16392;DHT22;8305;-33.882;151.134;2022-12-20T01:53:06;22.10;99.90
16392;DHT22;8305;-33.882;151.134;2022-12-20T01:55:37;22.30;99.90
16392;DHT22;8305;-33.882;151.134;2022-12-20T01:58:11;22.30;99.90
16392;DHT22;8305;-33.882;151.134;2022-12-20T02:00:42;22.20;99.90
16392;DHT22;8305;-33.882;151.134;2022-12-20T02:03:14;22.30;99.90
16392;DHT22;8305;-33.882;151.134;2022-12-20T02:05:49;22.30;99.90
16392;DHT22;8305;-33.882;151.134;2022-12-20T02:08:20;22.00;99.90
16392;DHT22;8305;-33.882;151.134;2022-12-20T02:11:03;21.90;99.90
16392;DHT22;8305;-33.882;151.134;2022-12-20T02:13:43;22.00;99.90
16392;DHT22;8305;-33.882;151.134;2022-12-20T02:16:24;21.90;99.90
16392;DHT22;8305;-33.882;151.134;2022-12-20T02:19:00;21.90;99.90
16392;DHT22;8305;-33.882;151.134;2022-12-20T02:21:35;22.10;99.90
16392;DHT22;8305;-33.882;151.134;2022-12-20T02:27:45;22.30;99.90
16392;DHT22;8305;-33.882;151.134;2022-12-20T02:30:21;22.50;99.90
16392;DHT22;8305;-33.882;151.134;2022-12-20T02:32:58;22.40;99.90
16392;DHT22;8305;-33.882;151.134;2022-12-20T02:35:30;22.20;99.90
16392;DHT22;8305;-33.882;151.134;2022-12-20T02:38:03;21.90;99.90
16392;DHT22;8305;-33.882;151.134;2022-12-20T02:40:37;22.00;99.90
16392;DHT22;8305;-33.882;151.134;2022-12-20T02:43:10;22.10;99.90
16392;DHT22;8305;-33.882;151.134;2022-12-20T02:45:57;21.90;99.90
16392;DHT22;8305;-33.882;151.134;2022-12-20T02:48:29;21.90;99.90
16392;DHT22;8305;-33.882;151.134;2022-12-20T02:51:03;21.90;99.90
16392;DHT22;8305;-33.882;151.134;2022-12-20T02:53:35;21.90;99.90
16392;DHT22;8305;-33.882;151.134;2022-12-20T02:56:11;22.10;99.90
16392;DHT22;8305;-33.882;151.134;2022-12-20T02:58:45;22.10;99.90
16392;DHT22;8305;-33.882;151.134;2022-12-20T03:01:23;22.10;99.90
16392;DHT22;8305;-33.882;151.134;2022-12-20T03:03:57;22.20;99.90
16392;DHT22;8305;-33.882;151.134;2022-12-20T03:06:28;22.10;99.90
16392;DHT22;8305;-33.882;151.134;2022-12-20T03:08:59;22.00;99.90
16392;DHT22;8305;-33.882;151.134;2022-12-20T03:11:29;21.90;99.90
16392;DHT22;8305;-33.882;151.134;2022-12-20T03:14:00;21.90;99.90
16392;DHT22;8305;-33.882;151.134;2022-12-20T03:16:33;22.00;99.90
16392;DHT22;8305;-33.882;151.134;2022-12-20T03:19:04;22.20;99.90
16392;DHT22;8305;-33.882;151.134;2022-12-20T03:21:34;22.00;99.90
16392;DHT22;8305;-33.882;151.134;2022-12-20T03:24:05;22.00;99.90
16392;DHT22;8305;-33.882;151.134;2022-12-20T03:26:37;21.90;99.90
16392;DHT22;8305;-33.882;151.134;2022-12-20T03:29:08;21.80;99.90
16392;DHT22;8305;-33.882;151.134;2022-12-20T03:31:41;21.70;99.90
16392;DHT22;8305;-33.882;151.134;2022-12-20T03:34:12;21.60;99.90
16392;DHT22;8305;-33.882;151.134;2022-12-20T03:36:43;21.60;99.90
16392;DHT22;8305;-33.882;151.134;2022-12-20T03:39:14;21.50;99.90
16392;DHT22;8305;-33.882;151.134;2022-12-20T03:41:45;21.50;99.90
16392;DHT22;8305;-33.882;151.134;2022-12-20T03:44:15;21.50;99.90
16392;DHT22;8305;-33.882;151.134;2022-12-20T03:46:48;21.50;99.90
16392;DHT22;8305;-33.882;151.134;2022-12-20T03:49:19;21.50;99.90
16392;DHT22;8305;-33.882;151.134;2022-12-20T03:51:50;21.40;99.90
16392;DHT22;8305;-33.882;151.134;2022-12-20T03:54:20;21.30;99.90
16392;DHT22;8305;-33.882;151.134;2022-12-20T03:56:51;21.20;99.90
16392;DHT22;8305;-33.882;151.134;2022-12-20T03:59:22;21.40;99.90
16392;DHT22;8305;-33.882;151.134;2022-12-20T04:01:55;21.40;99.90
16392;DHT22;8305;-33.882;151.134;2022-12-20T04:04:26;21.30;99.90
16392;DHT22;8305;-33.882;151.134;2022-12-20T04:06:57;21.20;99.90
16392;DHT22;8305;-33.882;151.134;2022-12-20T04:09:27;21.40;99.90
16392;DHT22;8305;-33.882;151.134;2022-12-20T04:11:58;21.30;99.90
16392;DHT22;8305;-33.882;151.134;2022-12-20T04:14:29;21.10;99.90
16392;DHT22;8305;-33.882;151.134;2022-12-20T04:17:02;21.20;99.90
16392;DHT22;8305;-33.882;151.134;2022-12-20T04:19:33;21.10;99.90
16392;DHT22;8305;-33.882;151.134;2022-12-20T04:22:03;21.30;99.90
16392;DHT22;8305;-33.882;151.134;2022-12-20T04:24:34;21.50;99.90
16392;DHT22;8305;-33.882;151.134;2022-12-20T04:27:05;21.50;99.90
16392;DHT22;8305;-33.882;151.134;2022-12-20T04:29:36;21.50;99.90
16392;DHT22;8305;-33.882;151.134;2022-12-20T04:32:09;21.40;99.90
16392;DHT22;8305;-33.882;151.134;2022-12-20T04:34:40;21.30;99.90
16392;DHT22;8305;-33.882;151.134;2022-12-20T04:37:10;21.30;99.90
16392;DHT22;8305;-33.882;151.134;2022-12-20T04:39:41;21.20;99.90
16392;DHT22;8305;-33.882;151.134;2022-12-20T04:42:12;21.20;99.90
16392;DHT22;8305;-33.882;151.134;2022-12-20T04:44:43;21.10;99.90
16392;DHT22;8305;-33.882;151.134;2022-12-20T04:47:15;21.20;99.90
16392;DHT22;8305;-33.882;151.134;2022-12-20T04:49:46;21.10;99.90
16392;DHT22;8305;-33.882;151.134;2022-12-20T04:52:17;21.00;99.90
16392;DHT22;8305;-33.882;151.134;2022-12-20T04:55:03;21.00;99.90
16392;DHT22;8305;-33.882;151.134;2022-12-20T04:57:34;21.00;99.90
16392;DHT22;8305;-33.882;151.134;2022-12-20T05:00:06;21.00;99.90
16392;DHT22;8305;-33.882;151.134;2022-12-20T05:02:39;20.90;99.90
16392;DHT22;8305;-33.882;151.134;2022-12-20T05:05:09;20.90;99.90
16392;DHT22;8305;-33.882;151.134;2022-12-20T05:07:40;21.00;99.90
16392;DHT22;8305;-33.882;151.134;2022-12-20T05:10:12;21.00;99.90
16392;DHT22;8305;-33.882;151.134;2022-12-20T05:12:42;21.00;99.90
16392;DHT22;8305;-33.882;151.134;2022-12-20T05:15:13;20.90;99.90
16392;DHT22;8305;-33.882;151.134;2022-12-20T05:17:46;20.70;99.90
16392;DHT22;8305;-33.882;151.134;2022-12-20T05:20:17;20.80;99.90
16392;DHT22;8305;-33.882;151.134;2022-12-20T05:22:48;20.70;99.90
16392;DHT22;8305;-33.882;151.134;2022-12-20T05:25:34;20.70;99.90
16392;DHT22;8305;-33.882;151.134;2022-12-20T05:28:21;20.70;99.90
16392;DHT22;8305;-33.882;151.134;2022-12-20T05:30:51;20.80;99.90
16392;DHT22;8305;-33.882;151.134;2022-12-20T05:33:24;20.70;99.90
16392;DHT22;8305;-33.882;151.134;2022-12-20T05:35:55;20.70;99.90
16392;DHT22;8305;-33.882;151.134;2022-12-20T05:38:26;20.70;99.90
16392;DHT22;8305;-33.882;151.134;2022-12-20T05:40:57;20.70;99.90
16392;DHT22;8305;-33.882;151.134;2022-12-20T05:43:27;20.60;99.90
16392;DHT22;8305;-33.882;151.134;2022-12-20T05:45:58;20.60;99.90
16392;DHT22;8305;-33.882;151.134;2022-12-20T05:48:31;20.60;99.90
16392;DHT22;8305;-33.882;151.134;2022-12-20T05:51:02;20.70;99.90
16392;DHT22;8305;-33.882;151.134;2022-12-20T05:53:33;20.50;99.90
16392;DHT22;8305;-33.882;151.134;2022-12-20T05:56:04;20.50;99.90
16392;DHT22;8305;-33.882;151.134;2022-12-20T05:58:35;20.50;99.90
16392;DHT22;8305;-33.882;151.134;2022-12-20T06:01:06;20.60;99.90
16392;DHT22;8305;-33.882;151.134;2022-12-20T06:03:39;20.60;99.90
16392;DHT22;8305;-33.882;151.134;2022-12-20T06:06:10;20.50;99.90
16392;DHT22;8305;-33.882;151.134;2022-12-20T06:08:41;20.40;99.90
16392;DHT22;8305;-33.882;151.134;2022-12-20T06:11:12;20.40;99.90
16392;DHT22;8305;-33.882;151.134;2022-12-20T06:13:43;20.50;99.90
16392;DHT22;8305;-33.882;151.134;2022-12-20T06:16:14;20.50;99.90
16392;DHT22;8305;-33.882;151.134;2022-12-20T06:18:49;20.50;99.90
16392;DHT22;8305;-33.882;151.134;2022-12-20T06:21:20;20.40;99.90
16392;DHT22;8305;-33.882;151.134;2022-12-20T06:23:51;20.40;99.90
16392;DHT22;8305;-33.882;151.134;2022-12-20T06:26:21;20.50;99.90
16392;DHT22;8305;-33.882;151.134;2022-12-20T06:28:52;20.50;99.90
16392;DHT22;8305;-33.882;151.134;2022-12-20T06:31:28;20.40;99.90
16392;DHT22;8305;-33.882;151.134;2022-12-20T06:34:01;20.30;99.90
16392;DHT22;8305;-33.882;151.134;2022-12-20T06:36:32;20.30;99.90
16392;DHT22;8305;-33.882;151.134;2022-12-20T06:39:03;20.20;99.90
16392;DHT22;8305;-33.882;151.134;2022-12-20T06:41:36;20.20;99.90
16392;DHT22;8305;-33.882;151.134;2022-12-20T06:44:06;20.10;99.90
16392;DHT22;8305;-33.882;151.134;2022-12-20T06:46:38;20.20;99.90
16392;DHT22;8305;-33.882;151.134;2022-12-20T06:49:10;20.20;99.90
16392;DHT22;8305;-33.882;151.134;2022-12-20T06:51:41;20.10;99.90
16392;DHT22;8305;-33.882;151.134;2022-12-20T06:54:12;20.00;99.90
16392;DHT22;8305;-33.882;151.134;2022-12-20T06:56:43;20.00;99.90
16392;DHT22;8305;-33.882;151.134;2022-12-20T06:59:14;20.00;99.90
16392;DHT22;8305;-33.882;151.134;2022-12-20T07:01:44;20.00;99.90
16392;DHT22;8305;-33.882;151.134;2022-12-20T07:04:17;20.10;99.90
16392;DHT22;8305;-33.882;151.134;2022-12-20T07:06:48;20.20;99.90
16392;DHT22;8305;-33.882;151.134;2022-12-20T07:09:19;20.20;99.90
16392;DHT22;8305;-33.882;151.134;2022-12-20T07:11:50;20.00;99.90
16392;DHT22;8305;-33.882;151.134;2022-12-20T07:14:21;20.00;99.90
16392;DHT22;8305;-33.882;151.134;2022-12-20T07:16:51;20.00;99.90
16392;DHT22;8305;-33.882;151.134;2022-12-20T07:19:24;19.80;99.90
16392;DHT22;8305;-33.882;151.134;2022-12-20T07:21:55;19.70;99.90
16392;DHT22;8305;-33.882;151.134;2022-12-20T07:24:26;19.70;99.90
16392;DHT22;8305;-33.882;151.134;2022-12-20T07:26:56;19.60;99.90
16392;DHT22;8305;-33.882;151.134;2022-12-20T07:29:27;19.70;99.90
16392;DHT22;8305;-33.882;151.134;2022-12-20T07:31:58;19.80;99.90
16392;DHT22;8305;-33.882;151.134;2022-12-20T07:34:31;19.80;99.90
16392;DHT22;8305;-33.882;151.134;2022-12-20T07:37:02;19.70;99.90
16392;DHT22;8305;-33.882;151.134;2022-12-20T07:39:32;19.70;99.90
16392;DHT22;8305;-33.882;151.134;2022-12-20T07:42:03;19.60;99.90
16392;DHT22;8305;-33.882;151.134;2022-12-20T07:44:34;19.60;99.90
16392;DHT22;8305;-33.882;151.134;2022-12-20T07:47:05;19.60;99.90
16392;DHT22;8305;-33.882;151.134;2022-12-20T07:49:38;19.50;99.90
16392;DHT22;8305;-33.882;151.134;2022-12-20T07:52:10;19.60;99.90
16392;DHT22;8305;-33.882;151.134;2022-12-20T07:54:44;19.60;99.90
16392;DHT22;8305;-33.882;151.134;2022-12-20T07:57:20;19.70;99.90
16392;DHT22;8305;-33.882;151.134;2022-12-20T07:59:55;19.80;99.90
16392;DHT22;8305;-33.882;151.134;2022-12-20T08:02:34;19.90;99.90
16392;DHT22;8305;-33.882;151.134;2022-12-20T08:05:08;19.90;99.90
16392;DHT22;8305;-33.882;151.134;2022-12-20T08:07:40;19.80;99.90
16392;DHT22;8305;-33.882;151.134;2022-12-20T08:10:12;19.90;99.90
16392;DHT22;8305;-33.882;151.134;2022-12-20T08:12:44;19.80;99.90
16392;DHT22;8305;-33.882;151.134;2022-12-20T08:15:15;19.70;99.90
16392;DHT22;8305;-33.882;151.134;2022-12-20T08:17:48;19.50;99.90
16392;DHT22;8305;-33.882;151.134;2022-12-20T08:20:21;19.50;99.90
16392;DHT22;8305;-33.882;151.134;2022-12-20T08:22:51;19.40;99.90
16392;DHT22;8305;-33.882;151.134;2022-12-20T08:25:22;19.40;99.90
16392;DHT22;8305;-33.882;151.134;2022-12-20T08:27:53;19.40;99.90
16392;DHT22;8305;-33.882;151.134;2022-12-20T08:30:24;19.40;99.90
16392;DHT22;8305;-33.882;151.134;2022-12-20T08:32:55;19.20;99.90
16392;DHT22;8305;-33.882;151.134;2022-12-20T08:35:28;19.10;99.90
16392;DHT22;8305;-33.882;151.134;2022-12-20T08:37:58;19.00;99.90
16392;DHT22;8305;-33.882;151.134;2022-12-20T08:40:29;19.00;99.90
16392;DHT22;8305;-33.882;151.134;2022-12-20T08:43:00;18.90;99.90
16392;DHT22;8305;-33.882;151.134;2022-12-20T08:45:31;18.90;99.90
16392;DHT22;8305;-33.882;151.134;2022-12-20T08:48:01;18.80;99.90
16392;DHT22;8305;-33.882;151.134;2022-12-20T08:50:34;18.70;99.90
16392;DHT22;8305;-33.882;151.134;2022-12-20T08:53:05;18.60;99.90
16392;DHT22;8305;-33.882;151.134;2022-12-20T08:55:36;18.60;99.90
16392;DHT22;8305;-33.882;151.134;2022-12-20T08:58:07;18.50;99.90
16392;DHT22;8305;-33.882;151.134;2022-12-20T09:00:37;18.50;99.90
16392;DHT22;8305;-33.882;151.134;2022-12-20T09:03:08;18.40;99.90
16392;DHT22;8305;-33.882;151.134;2022-12-20T09:05:46;18.30;99.90
16392;DHT22;8305;-33.882;151.134;2022-12-20T09:08:17;18.30;99.90
16392;DHT22;8305;-33.882;151.134;2022-12-20T09:10:48;18.30;99.90
16392;DHT22;8305;-33.882;151.134;2022-12-20T09:13:18;18.20;99.90
16392;DHT22;8305;-33.882;151.134;2022-12-20T09:15:50;18.10;99.90
16392;DHT22;8305;-33.882;151.134;2022-12-20T09:18:21;18.10;99.90
16392;DHT22;8305;-33.882;151.134;2022-12-20T09:20:53;18.10;99.90
16392;DHT22;8305;-33.882;151.134;2022-12-20T09:23:24;18.00;99.90
16392;DHT22;8305;-33.882;151.134;2022-12-20T09:25:55;18.00;99.90
16392;DHT22;8305;-33.882;151.134;2022-12-20T09:28:31;18.00;99.90
16392;DHT22;8305;-33.882;151.134;2022-12-20T09:31:02;17.90;99.90
16392;DHT22;8305;-33.882;151.134;2022-12-20T09:33:35;17.90;99.90
16392;DHT22;8305;-33.882;151.134;2022-12-20T09:36:11;17.90;99.90
16392;DHT22;8305;-33.882;151.134;2022-12-20T09:38:42;17.90;99.90
16392;DHT22;8305;-33.882;151.134;2022-12-20T09:41:23;17.90;99.90
16392;DHT22;8305;-33.882;151.134;2022-12-20T09:43:55;17.80;99.90
16392;DHT22;8305;-33.882;151.134;2022-12-20T09:46:27;17.80;99.90
16392;DHT22;8305;-33.882;151.134;2022-12-20T09:48:58;17.80;99.90
16392;DHT22;8305;-33.882;151.134;2022-12-20T09:51:45;17.80;99.90
16392;DHT22;8305;-33.882;151.134;2022-12-20T09:54:24;17.80;99.90
16392;DHT22;8305;-33.882;151.134;2022-12-20T09:57:02;17.70;99.90
16392;DHT22;8305;-33.882;151.134;2022-12-20T09:59:36;17.70;99.90
16392;DHT22;8305;-33.882;151.134;2022-12-20T10:02:09;17.70;99.90
16392;DHT22;8305;-33.882;151.134;2022-12-20T10:04:41;17.70;99.90
16392;DHT22;8305;-33.882;151.134;2022-12-20T10:07:24;17.70;99.90
16392;DHT22;8305;-33.882;151.134;2022-12-20T10:10:09;17.70;99.90
16392;DHT22;8305;-33.882;151.134;2022-12-20T10:12:47;17.60;99.90
16392;DHT22;8305;-33.882;151.134;2022-12-20T10:15:22;17.60;99.90
16392;DHT22;8305;-33.882;151.134;2022-12-20T10:18:03;17.60;99.90
16392;DHT22;8305;-33.882;151.134;2022-12-20T10:20:46;17.60;99.90
16392;DHT22;8305;-33.882;151.134;2022-12-20T10:23:27;17.60;99.90
16392;DHT22;8305;-33.882;151.134;2022-12-20T10:26:00;17.60;99.90
16392;DHT22;8305;-33.882;151.134;2022-12-20T10:28:33;17.60;99.90
16392;DHT22;8305;-33.882;151.134;2022-12-20T10:31:06;17.60;99.90
16392;DHT22;8305;-33.882;151.134;2022-12-20T10:33:37;17.50;99.90
16392;DHT22;8305;-33.882;151.134;2022-12-20T10:36:23;17.50;99.90
16392;DHT22;8305;-33.882;151.134;2022-12-20T10:38:58;17.50;99.90
16392;DHT22;8305;-33.882;151.134;2022-12-20T10:41:30;17.50;99.90
16392;DHT22;8305;-33.882;151.134;2022-12-20T10:44:03;17.50;99.90
16392;DHT22;8305;-33.882;151.134;2022-12-20T10:46:36;17.50;99.90
16392;DHT22;8305;-33.882;151.134;2022-12-20T10:49:25;17.50;99.90
16392;DHT22;8305;-33.882;151.134;2022-12-20T10:51:59;17.40;99.90
16392;DHT22;8305;-33.882;151.134;2022-12-20T10:54:34;17.40;99.90
16392;DHT22;8305;-33.882;151.134;2022-12-20T10:57:20;17.30;99.90
16392;DHT22;8305;-33.882;151.134;2022-12-20T10:59:52;17.30;99.90
16392;DHT22;8305;-33.882;151.134;2022-12-20T11:02:28;17.30;99.90
16392;DHT22;8305;-33.882;151.134;2022-12-20T11:05:01;17.30;99.90
16392;DHT22;8305;-33.882;151.134;2022-12-20T11:07:33;17.30;99.90
16392;DHT22;8305;-33.882;151.134;2022-12-20T11:10:18;17.30;99.90
16392;DHT22;8305;-33.882;151.134;2022-12-20T11:12:53;17.30;99.90
16392;DHT22;8305;-33.882;151.134;2022-12-20T11:15:26;17.20;99.90
16392;DHT22;8305;-33.882;151.134;2022-12-20T11:18:00;17.20;99.90
16392;DHT22;8305;-33.882;151.134;2022-12-20T11:20:40;17.20;99.90
16392;DHT22;8305;-33.882;151.134;2022-12-20T11:23:20;17.20;99.90
16392;DHT22;8305;-33.882;151.134;2022-12-20T11:26:13;17.20;99.90
16392;DHT22;8305;-33.882;151.134;2022-12-20T11:28:59;17.20;99.90
16392;DHT22;8305;-33.882;151.134;2022-12-20T11:31:43;17.10;99.90
16392;DHT22;8305;-33.882;151.134;2022-12-20T11:34:29;17.20;99.90
16392;DHT22;8305;-33.882;151.134;2022-12-20T11:37:14;17.10;99.90
16392;DHT22;8305;-33.882;151.134;2022-12-20T11:39:58;17.10;99.90
16392;DHT22;8305;-33.882;151.134;2022-12-20T11:42:44;17.10;99.90
16392;DHT22;8305;-33.882;151.134;2022-12-20T11:45:23;17.10;99.90
16392;DHT22;8305;-33.882;151.134;2022-12-20T11:48:13;17.00;99.90
16392;DHT22;8305;-33.882;151.134;2022-12-20T11:50:58;17.00;99.90
16392;DHT22;8305;-33.882;151.134;2022-12-20T11:53:37;17.00;99.90
16392;DHT22;8305;-33.882;151.134;2022-12-20T11:56:11;17.00;99.90
16392;DHT22;8305;-33.882;151.134;2022-12-20T11:58:51;16.90;99.90
16392;DHT22;8305;-33.882;151.134;2022-12-20T12:01:25;16.90;99.90
16392;DHT22;8305;-33.882;151.134;2022-12-20T12:04:06;16.90;99.90
16392;DHT22;8305;-33.882;151.134;2022-12-20T12:06:40;16.90;99.90
16392;DHT22;8305;-33.882;151.134;2022-12-20T12:09:20;16.90;99.90
16392;DHT22;8305;-33.882;151.134;2022-12-20T12:11:57;16.90;99.90
16392;DHT22;8305;-33.882;151.134;2022-12-20T12:14:42;16.90;99.90
16392;DHT22;8305;-33.882;151.134;2022-12-20T12:17:20;16.90;99.90
16392;DHT22;8305;-33.882;151.134;2022-12-20T12:19:54;16.90;99.90
16392;DHT22;8305;-33.882;151.134;2022-12-20T12:22:30;16.90;99.90
16392;DHT22;8305;-33.882;151.134;2022-12-20T12:25:05;16.90;99.90
16392;DHT22;8305;-33.882;151.134;2022-12-20T12:27:39;16.90;99.90
16392;DHT22;8305;-33.882;151.134;2022-12-20T12:30:15;17.00;99.90
16392;DHT22;8305;-33.882;151.134;2022-12-20T12:32:49;17.00;99.90
16392;DHT22;8305;-33.882;151.134;2022-12-20T12:35:50;17.00;99.90
16392;DHT22;8305;-33.882;151.134;2022-12-20T12:38:45;17.00;99.90
16392;DHT22;8305;-33.882;151.134;2022-12-20T12:41:53;17.10;99.90
16392;DHT22;8305;-33.882;151.134;2022-12-20T12:44:36;17.10;99.90
16392;DHT22;8305;-33.882;151.134;2022-12-20T12:47:14;17.20;99.90
16392;DHT22;8305;-33.882;151.134;2022-12-20T12:49:48;17.20;99.90
16392;DHT22;8305;-33.882;151.134;2022-12-20T12:52:43;17.20;99.90
16392;DHT22;8305;-33.882;151.134;2022-12-20T12:55:39;17.20;99.90
16392;DHT22;8305;-33.882;151.134;2022-12-20T12:58:31;17.20;99.90
16392;DHT22;8305;-33.882;151.134;2022-12-20T13:01:05;17.20;99.90
16392;DHT22;8305;-33.882;151.134;2022-12-20T13:03:44;17.10;99.90
16392;DHT22;8305;-33.882;151.134;2022-12-20T13:06:49;17.10;99.90
16392;DHT22;8305;-33.882;151.134;2022-12-20T13:09:38;17.00;99.90
16392;DHT22;8305;-33.882;151.134;2022-12-20T13:15:51;16.90;99.90
16392;DHT22;8305;-33.882;151.134;2022-12-20T13:18:34;16.90;99.90
16392;DHT22;8305;-33.882;151.134;2022-12-20T13:21:31;16.90;99.90
16392;DHT22;8305;-33.882;151.134;2022-12-20T13:27:27;16.90;99.90
16392;DHT22;8305;-33.882;151.134;2022-12-20T13:30:25;16.90;99.90
16392;DHT22;8305;-33.882;151.134;2022-12-20T13:35:57;16.80;99.90
16392;DHT22;8305;-33.882;151.134;2022-12-20T13:38:51;16.80;99.90
16392;DHT22;8305;-33.882;151.134;2022-12-20T13:41:34;16.80;99.90
16392;DHT22;8305;-33.882;151.134;2022-12-20T13:44:27;16.70;99.90
16392;DHT22;8305;-33.882;151.134;2022-12-20T13:47:11;16.70;99.90
16392;DHT22;8305;-33.882;151.134;2022-12-20T13:49:44;16.70;99.90
16392;DHT22;8305;-33.882;151.134;2022-12-20T13:52:26;16.70;99.90
16392;DHT22;8305;-33.882;151.134;2022-12-20T13:55:01;16.70;99.90
16392;DHT22;8305;-33.882;151.134;2022-12-20T13:57:42;16.70;99.90
16392;DHT22;8305;-33.882;151.134;2022-12-20T14:00:17;16.70;99.90
16392;DHT22;8305;-33.882;151.134;2022-12-20T14:02:48;16.70;99.90
16392;DHT22;8305;-33.882;151.134;2022-12-20T14:05:20;16.60;99.90
16392;DHT22;8305;-33.882;151.134;2022-12-20T14:07:58;16.60;99.90
16392;DHT22;8305;-33.882;151.134;2022-12-20T14:10:32;16.60;99.90
16392;DHT22;8305;-33.882;151.134;2022-12-20T14:13:12;16.60;99.90
16392;DHT22;8305;-33.882;151.134;2022-12-20T14:15:46;16.60;99.90
16392;DHT22;8305;-33.882;151.134;2022-12-20T14:18:19;16.50;99.90
16392;DHT22;8305;-33.882;151.134;2022-12-20T14:20:52;16.50;99.90
16392;DHT22;8305;-33.882;151.134;2022-12-20T14:23:28;16.50;99.90
16392;DHT22;8305;-33.882;151.134;2022-12-20T14:26:03;16.50;99.90
16392;DHT22;8305;-33.882;151.134;2022-12-20T14:28:36;16.50;99.90
16392;DHT22;8305;-33.882;151.134;2022-12-20T14:31:23;16.50;99.90
16392;DHT22;8305;-33.882;151.134;2022-12-20T14:34:02;16.50;99.90
16392;DHT22;8305;-33.882;151.134;2022-12-20T14:36:34;16.50;99.90
16392;DHT22;8305;-33.882;151.134;2022-12-20T14:39:22;16.50;99.90
16392;DHT22;8305;-33.882;151.134;2022-12-20T14:41:59;16.50;99.90
16392;DHT22;8305;-33.882;151.134;2022-12-20T14:44:30;16.50;99.90
16392;DHT22;8305;-33.882;151.134;2022-12-20T14:47:10;16.50;99.90
16392;DHT22;8305;-33.882;151.134;2022-12-20T14:49:47;16.50;99.90
16392;DHT22;8305;-33.882;151.134;2022-12-20T14:52:23;16.50;99.90
16392;DHT22;8305;-33.882;151.134;2022-12-20T14:54:59;16.50;99.90
16392;DHT22;8305;-33.882;151.134;2022-12-20T14:57:38;16.50;99.90
16392;DHT22;8305;-33.882;151.134;2022-12-20T15:00:14;16.50;99.90
16392;DHT22;8305;-33.882;151.134;2022-12-20T15:02:56;16.50;99.90
16392;DHT22;8305;-33.882;151.134;2022-12-20T15:05:52;16.50;99.90
16392;DHT22;8305;-33.882;151.134;2022-12-20T15:08:26;16.50;99.90
16392;DHT22;8305;-33.882;151.134;2022-12-20T15:11:10;16.50;99.90
16392;DHT22;8305;-33.882;151.134;2022-12-20T15:13:44;16.50;99.90
16392;DHT22;8305;-33.882;151.134;2022-12-20T15:16:17;16.50;99.90
16392;DHT22;8305;-33.882;151.134;2022-12-20T15:18:49;16.50;99.90
16392;DHT22;8305;-33.882;151.134;2022-12-20T15:21:26;16.50;99.90
16392;DHT22;8305;-33.882;151.134;2022-12-20T15:24:00;16.50;99.90
16392;DHT22;8305;-33.882;151.134;2022-12-20T15:26:35;16.60;99.90
16392;DHT22;8305;-33.882;151.134;2022-12-20T15:29:11;16.60;99.90
16392;DHT22;8305;-33.882;151.134;2022-12-20T15:31:45;16.60;99.90
16392;DHT22;8305;-33.882;151.134;2022-12-20T15:34:22;16.60;99.90
16392;DHT22;8305;-33.882;151.134;2022-12-20T15:36:55;16.50;99.90
16392;DHT22;8305;-33.882;151.134;2022-12-20T15:39:27;16.50;99.90
16392;DHT22;8305;-33.882;151.134;2022-12-20T15:42:00;16.50;99.90
16392;DHT22;8305;-33.882;151.134;2022-12-20T15:44:33;16.50;99.90
16392;DHT22;8305;-33.882;151.134;2022-12-20T15:47:11;16.50;99.90
16392;DHT22;8305;-33.882;151.134;2022-12-20T15:49:42;16.50;99.90
16392;DHT22;8305;-33.882;151.134;2022-12-20T15:52:18;16.50;99.90
16392;DHT22;8305;-33.882;151.134;2022-12-20T15:54:49;16.50;99.90
16392;DHT22;8305;-33.882;151.134;2022-12-20T15:57:20;16.50;99.90
16392;DHT22;8305;-33.882;151.134;2022-12-20T15:59:53;16.50;99.90
16392;DHT22;8305;-33.882;151.134;2022-12-20T16:02:25;16.50;99.90